Terminal Aerodrome Forecast
Issued by NWS

Home | Current Version | Previous Version | Text Only | Print | Product List | Glossary Off
Versions: 1 2 3 4 5 6 7 8 9 10 11 12 13 14 15 16 17 18 19 20 21 22 23 24 25 26

215
FTUS43 KLOT 051635 AAA
TAFORD
TAF AMD
KORD 051635Z 0517/0618 34008KT P6SM FEW016 SCT035 BKN250
      TEMPO 0517/0519 BKN016
     FM051900 30006KT P6SM SCT015 BKN150
     FM060000 24004KT P6SM OVC090
     FM061000 22009KT P6SM OVC060=

USA.gov is the U.S. government's official web portal to all federal, state and local government web resources and services.